»·PEaware :: N235B KBUR-KLAS

N235B :: KBUR-KLAS

FLIGHT INFORMATION

Flight Status: Arrived
Operator: Privately registered:
United States
More flights under this callsign
Pilot: Jason D. (29273)
Aircraft: AIRBUS A320
(A320)
More flights by this aircraft type
Origin: KBUR Bob Hope-Burbank
United States
Destination: KLAS McCarran Intl
United States
More flights between these airports :: More routes between these airports
Route: +SLAPP1 MISEN KEPEC6
File this flight plan on PilotEdge
Remarks: RMK / SIMBRIEF
Altitude:
(Current/Filed)
35,000ft
Speed:
(Current/Filed)
441kts
Departed: 05-Oct-20 04:27 PM
Arrived: 05-Oct-20 05:24 PM
Distance/Time
Traveled:
6789nm/0:56
Distance/Time
To Go:
Arrived

Flight Plot

Page will automatically refresh every two minutes.

Flight plan parsing failed; only flown route is shown


Map Options




Map Legend


Flown Route
Filed Route
Departure Airport
Arrival Airport
Navaid (VOR, NDB)
Fix

Horizontal Profiles

Position Reports

Time Latitude Longitude Heading Altitude Ground
Speed
05-Oct-20 15:40 0.000408 0.013975 0 5ft 0kts
05-Oct-20 15:41 0.000408 0.013975 0 5ft 0kts
05-Oct-20 15:42 0.000408 0.013975 0 5ft 0kts
05-Oct-20 15:43 0.000408 0.013975 0 5ft 0kts
05-Oct-20 15:44 0.000408 0.013975 0 5ft 0kts
05-Oct-20 15:45 0.000408 0.013975 0 5ft 0kts
05-Oct-20 15:46 0.000408 0.013975 0 5ft 0kts
05-Oct-20 15:47 0.000408 0.013975 0 5ft 0kts
05-Oct-20 15:48 0.000408 0.013975 0 5ft 0kts
05-Oct-20 15:49 0.000408 0.013975 0 5ft 0kts
05-Oct-20 15:50 34.199819 -118.366503 180 722ft 0kts
05-Oct-20 15:51 34.199819 -118.366503 180 731ft 0kts
05-Oct-20 15:52 34.199819 -118.366502 180 731ft 0kts
05-Oct-20 15:53 34.199819 -118.366502 180 731ft 0kts
05-Oct-20 15:54 34.199819 -118.366502 180 731ft 0kts
05-Oct-20 15:55 34.199819 -118.366502 180 731ft 0kts
05-Oct-20 15:56 34.199819 -118.366502 180 731ft 0kts
05-Oct-20 15:57 34.199819 -118.366502 180 731ft 0kts
05-Oct-20 15:58 34.199819 -118.366502 180 731ft 0kts
05-Oct-20 15:59 34.199819 -118.366502 180 731ft 0kts
05-Oct-20 16:00 34.199819 -118.366502 180 731ft 0kts
05-Oct-20 16:01 34.199819 -118.366502 180 731ft 0kts
05-Oct-20 16:02 34.199819 -118.366502 180 731ft 0kts
05-Oct-20 16:03 34.199819 -118.366502 180 731ft 0kts
05-Oct-20 16:04 34.199819 -118.366502 180 731ft 0kts
05-Oct-20 16:05 34.199819 -118.366502 180 731ft 0kts
05-Oct-20 16:06 34.199819 -118.366502 180 731ft 0kts
05-Oct-20 16:07 34.199819 -118.366502 180 731ft 0kts
05-Oct-20 16:08 34.199819 -118.366502 180 731ft 0kts
05-Oct-20 16:09 34.199819 -118.366502 180 731ft 0kts
05-Oct-20 16:10 34.199819 -118.366502 180 731ft 0kts
05-Oct-20 16:11 34.199819 -118.366502 180 731ft 0kts
05-Oct-20 16:12 34.199819 -118.366502 180 731ft 0kts
05-Oct-20 16:13 34.199819 -118.366502 180 731ft 0kts
05-Oct-20 16:14 34.199819 -118.366502 180 731ft 0kts
05-Oct-20 16:15 34.199819 -118.366502 180 731ft 0kts
05-Oct-20 16:16 34.199819 -118.366502 180 731ft 0kts
05-Oct-20 16:17 34.199819 -118.366502 180 731ft 0kts
05-Oct-20 16:18 34.199819 -118.366502 180 731ft 0kts
05-Oct-20 16:19 34.199737 -118.366517 195 730ft 3kts
05-Oct-20 16:20 34.198878 -118.368757 221 734ft 0kts
05-Oct-20 16:21 34.198878 -118.368757 221 734ft 0kts
05-Oct-20 16:22 34.198878 -118.368757 221 734ft 0kts
05-Oct-20 16:23 34.198878 -118.368757 221 734ft 0kts
05-Oct-20 16:25 34.198878 -118.368757 221 734ft 0kts
05-Oct-20 16:26 34.198870 -118.368762 216 734ft 0kts
05-Oct-20 16:27 34.197906 -118.364473 92 726ft 91kts
05-Oct-20 16:28 34.201409 -118.302935 62 3761ft 206kts
05-Oct-20 16:29 34.263885 -118.286929 354 6268ft 284kts
05-Oct-20 16:30 34.319573 -118.237236 62 6210ft 282kts
05-Oct-20 16:31 34.318110 -118.156034 146 5762ft 270kts
05-Oct-20 16:32 34.245992 -118.133310 187 5882ft 271kts
05-Oct-20 16:33 34.171431 -118.148152 193 6780ft 272kts
05-Oct-20 16:34 34.120992 -118.210718 260 8657ft 281kts
05-Oct-20 16:35 34.150889 -118.293973 323 9089ft 289kts
05-Oct-20 16:36 34.220385 -118.338464 341 7205ft 276kts
05-Oct-20 16:37 34.295229 -118.356547 351 7048ft 276kts
05-Oct-20 16:38 34.372056 -118.361736 358 8043ft 280kts
05-Oct-20 16:39 34.448683 -118.332530 31 10280ft 318kts
05-Oct-20 16:40 34.523017 -118.265322 37 12587ft 340kts
05-Oct-20 16:41 34.598845 -118.192682 37 14757ft 353kts
05-Oct-20 16:42 34.661139 -118.102653 70 16148ft 360kts
05-Oct-20 16:42 34.682595 -118.003300 81 17741ft 369kts
05-Oct-20 16:44 34.694871 -117.856484 84 20474ft 382kts
05-Oct-20 16:45 34.702827 -117.724906 87 23347ft 399kts
05-Oct-20 16:45 34.707903 -117.609089 87 24629ft 437kts
05-Oct-20 16:46 34.729503 -117.456585 74 25860ft 477kts
05-Oct-20 16:48 34.775495 -117.278420 72 27608ft 475kts
05-Oct-20 16:48 34.809849 -117.147978 72 28865ft 492kts
05-Oct-20 16:49 34.850888 -116.991801 72 30363ft 483kts
05-Oct-20 16:50 34.891409 -116.836714 73 31549ft 489kts
05-Oct-20 16:51 34.948334 -116.682537 57 33574ft 480kts
05-Oct-20 16:52 35.022724 -116.550194 55 31093ft 500kts
05-Oct-20 16:53 35.101636 -116.414515 47 26219ft 471kts
05-Oct-20 16:54 35.193495 -116.322431 37 24455ft 421kts
05-Oct-20 16:55 35.284619 -116.235799 38 23546ft 402kts
05-Oct-20 16:56 35.366698 -116.155850 38 21759ft 352kts
05-Oct-20 16:57 35.441603 -116.082165 37 19303ft 338kts
05-Oct-20 16:58 35.513471 -116.011700 37 16970ft 324kts
05-Oct-20 16:59 35.582818 -115.943864 38 14614ft 312kts
05-Oct-20 17:00 35.651884 -115.876387 38 13063ft 344kts
05-Oct-20 17:01 35.730025 -115.800211 38 12983ft 360kts
05-Oct-20 17:02 35.787645 -115.701993 63 12985ft 361kts
05-Oct-20 17:03 35.832626 -115.595889 60 12959ft 316kts
05-Oct-20 17:04 35.874453 -115.505517 59 10778ft 299kts
05-Oct-20 17:05 35.916703 -115.416609 59 9084ft 310kts
05-Oct-20 17:06 35.959926 -115.325847 59 8987ft 307kts
05-Oct-20 17:07 35.990239 -115.229004 83 8980ft 308kts
05-Oct-20 17:08 35.997297 -115.129291 91 8065ft 286kts
05-Oct-20 17:09 35.995746 -115.031294 90 7973ft 288kts
05-Oct-20 17:10 35.992139 -114.932301 92 7965ft 288kts
05-Oct-20 17:11 35.988536 -114.833592 92 7960ft 288kts
05-Oct-20 17:12 35.985044 -114.734915 92 7958ft 288kts
05-Oct-20 17:13 35.995463 -114.641180 52 6575ft 264kts
05-Oct-20 17:14 36.047857 -114.637928 299 5953ft 187kts
05-Oct-20 17:15 36.060732 -114.700466 282 5953ft 188kts
05-Oct-20 17:16 36.073782 -114.762990 277 5959ft 187kts
05-Oct-20 17:17 36.074571 -114.827314 270 5900ft 189kts
05-Oct-20 17:18 36.074800 -114.892132 270 4991ft 188kts
05-Oct-20 17:19 36.075037 -114.956293 270 4502ft 186kts
05-Oct-20 17:20 36.075256 -115.020014 270 3071ft 185kts
05-Oct-20 17:21 36.076065 -115.078854 272 2336ft 149kts
05-Oct-20 17:22 36.076457 -115.129041 268 2116ft 142kts
05-Oct-20 17:23 36.077466 -115.146607 327 2130ft 0kts
05-Oct-20 17:24 36.081050 -115.147643 27 2125ft 0kts
05-Oct-20 17:25 0.000408 0.013975 0 8ft 0kts
05-Oct-20 17:26 0.000408 0.013975 0 8ft 0kts
05-Oct-20 17:27 0.000408 0.013975 0 8ft 0kts
05-Oct-20 17:28 0.000408 0.013975 0 8ft 0kts
05-Oct-20 17:29 0.000408 0.013975 0 8ft 0kts
05-Oct-20 17:30 0.000408 0.013975 0 8ft 0kts
05-Oct-20 17:31 0.000408 0.013975 0 8ft 0kts
05-Oct-20 17:32 0.000408 0.013975 0 8ft 0kts
05-Oct-20 17:33 0.000408 0.013975 0 8ft 0kts

Navigation Log

Ident Type
Flight plan parsing failed, navigation log unavailable